Time;durP1;ratioP1;P1;durP2;ratioP2;P2;SDS_P1;SDS_P2;PMS_P1;PMS_P2;Temp;Humidity;BMP_temperature;BMP_pressure;BME280_temperature;BME280_humidity;BME280_pressure;Samples;Min_cycle;Max_cycle;Signal;HPM_P1;HPM_P2
2021/05/18 00:03:42;;;;;;;;;;;;;;;13.64;76.05;99230.83;2705491;88;20525;-63
2021/05/18 00:08:20;;;;;;;;;;;;;;;13.62;76.23;99225.64;2705261;88;20223;-64
2021/05/18 00:11:53;;;;;;;;;;;;;;;13.58;76.14;99230.19;2700865;88;20217;-64
2021/05/18 00:15:57;;;;;;;;;;;;;;;13.48;76.51;99227.19;2704939;88;20215;-64
2021/05/18 00:19:59;;;;;;;;;;;;;;;13.38;76.46;99230.53;2704932;88;20259;-64
2021/05/18 00:24:00;;;;;;;;;;;;;;;13.27;76.80;99231.20;2704979;88;20199;-63
2021/05/18 00:28:01;;;;;;;;;;;;;;;13.28;77.06;99240.07;2704957;88;20232;-63
2021/05/18 00:32:03;;;;;;;;;;;;;;;13.22;77.39;99237.56;2704916;88;20206;-63
2021/05/18 00:36:05;;;;;;;;;;;;;;;13.13;77.77;99243.90;2683473;88;20210;-64
2021/05/18 00:40:10;;;;;;;;;;;;;;;13.03;78.20;99233.39;2667925;89;20191;-64
2021/05/18 00:44:11;;;;;;;;;;;;;;;12.94;78.43;99239.23;2667964;88;20195;-63
2021/05/18 00:48:14;;;;;;;;;;;;;;;12.79;78.60;99237.73;2668169;88;20171;-63
2021/05/18 00:52:16;;;;;;;;;;;;;;;12.63;78.82;99234.56;2667944;89;20211;-63
2021/05/18 01:00:41;;;;;;;;;;;;;;;12.38;79.55;99239.87;2667838;89;20183;-63
2021/05/18 01:04:44;;;;;;;;;;;;;;;12.29;79.85;99248.83;2667501;88;20194;-63
2021/05/18 01:08:47;;;;;;;;;;;;;;;12.22;80.25;99243.30;2667723;88;20175;-63
2021/05/18 01:12:48;;;;;;;;;;;;;;;12.17;80.55;99244.78;2667576;89;20215;-63
2021/05/18 01:16:51;;;;;;;;;;;;;;;12.07;80.94;99252.42;2667622;89;21096;-64
2021/05/18 01:20:58;;;;;;;;;;;;;;;11.97;81.39;99259.67;2667532;89;20195;-64
2021/05/18 01:25:00;;;;;;;;;;;;;;;11.88;81.82;99268.13;2667501;88;20190;-63
2021/05/18 01:29:03;;;;;;;;;;;;;;;11.85;81.97;99262.63;2667363;89;20163;-63
2021/05/18 01:33:04;;;;;;;;;;;;;;;11.82;81.81;99264.29;2667455;89;20231;-63
2021/05/18 01:37:06;;;;;;;;;;;;;;;11.86;81.68;99270.97;2694437;87;20174;-63
2021/05/18 01:45:30;;;;;;;;;;;;;;;11.93;81.36;99280.49;2704094;88;20182;-63
2021/05/18 01:49:31;;;;;;;;;;;;;;;11.94;81.22;99274.66;2703900;88;20187;-63
2021/05/18 01:53:32;;;;;;;;;;;;;;;11.92;81.03;99278.83;2703965;88;20186;-63
2021/05/18 01:57:34;;;;;;;;;;;;;;;11.91;80.90;99284.30;2703950;88;20202;-63
2021/05/18 02:01:36;;;;;;;;;;;;;;;11.85;80.85;99282.62;2704033;88;20190;-63
2021/05/18 02:05:40;;;;;;;;;;;;;;;11.85;80.94;99287.95;2703955;88;20174;-63
2021/05/18 02:09:42;;;;;;;;;;;;;;;11.85;80.95;99295.94;2704200;88;20234;-63
2021/05/18 02:13:49;;;;;;;;;;;;;;;11.82;81.01;99301.59;2703775;86;20222;-63
2021/05/18 02:18:21;;;;;;;;;;;;;;;11.75;81.23;99301.87;2703687;88;20565;-63
2021/05/18 02:24:35;;;;;;;;;;;;;;;11.66;81.43;99308.97;2701930;87;20539;-63
2021/05/18 02:26:18;;;;;;;;;;;;;;;11.57;81.70;99304.09;2700854;88;20202;-63
2021/05/18 02:30:20;;;;;;;;;;;;;;;11.48;82.00;99309.52;2703485;88;20182;-63
2021/05/18 02:34:21;;;;;;;;;;;;;;;11.45;82.22;99306.69;2703460;88;20214;-63
2021/05/18 02:38:23;;;;;;;;;;;;;;;11.37;82.48;99316.78;2668047;88;20171;-63
2021/05/18 02:42:24;;;;;;;;;;;;;;;11.31;82.81;99327.20;2667382;88;20163;-63
2021/05/18 02:50:29;;;;;;;;;;;;;;;11.22;83.15;99335.14;2667716;88;20206;-63
2021/05/18 02:54:31;;;;;;;;;;;;;;;11.19;83.32;99335.93;2667167;89;20151;-63
2021/05/18 02:58:34;;;;;;;;;;;;;;;11.19;83.39;99344.73;2667059;89;20528;-63
2021/05/18 03:02:35;;;;;;;;;;;;;;;11.11;83.62;99350.84;2666828;89;20167;-65
2021/05/18 03:06:37;;;;;;;;;;;;;;;11.10;83.84;99348.33;2666798;89;20194;-64
2021/05/18 03:10:39;;;;;;;;;;;;;;;11.12;83.95;99355.66;2667071;89;20535;-64
2021/05/18 03:14:41;;;;;;;;;;;;;;;11.12;84.02;99361.84;2667027;88;20178;-64
2021/05/18 03:18:42;;;;;;;;;;;;;;;11.12;84.10;99359.17;2666767;88;20179;-63
2021/05/18 03:22:44;;;;;;;;;;;;;;;11.12;84.15;99357.84;2666267;88;20169;-66
2021/05/18 03:26:48;;;;;;;;;;;;;;;11.05;84.28;99363.41;2666257;88;20199;-66
2021/05/18 03:34:59;;;;;;;;;;;;;;;10.89;85.03;99365.42;2665510;86;20182;-66
2021/05/18 03:39:00;;;;;;;;;;;;;;;10.83;85.50;99368.19;2654352;89;20204;-67
2021/05/18 04:04:28;;;;;;;;;;;;;;;10.90;87.51;99376.41;2654559;89;20555;-67
2021/05/18 04:17:10;;;;;;;;;;;;;;;11.24;86.75;99385.06;2654384;89;20211;-66
2021/05/18 04:21:23;;;;;;;;;;;;;;;11.36;86.63;99388.81;2654402;89;20579;-66
2021/05/18 04:25:45;;;;;;;;;;;;;;;11.45;86.50;99389.23;2653336;89;20551;-67
2021/05/18 04:51:54;;;;;;;;;;;;;;;12.83;83.28;99398.37;2677891;89;20170;-66
2021/05/18 04:59:46;;;;;;;;;;;;;;;13.56;80.21;99396.84;2678153;89;20182;-66
2021/05/18 05:03:55;;;;;;;;;;;;;;;13.66;79.55;99398.50;2677239;88;20154;-66
2021/05/18 05:08:13;;;;;;;;;;;;;;;13.74;79.44;99413.18;2676690;88;20191;-67
2021/05/18 05:16:10;;;;;;;;;;;;;;;13.68;78.97;99412.52;2678055;88;20555;-67
2021/05/18 05:20:12;;;;;;;;;;;;;;;13.89;79.87;99415.18;2678307;89;20198;-69
2021/05/18 05:24:14;;;;;;;;;;;;;;;14.17;78.30;99409.47;2678175;89;20182;-67
2021/05/18 05:28:15;;;;;;;;;;;;;;;14.19;77.65;99413.63;2678458;88;20191;-67
2021/05/18 05:32:16;;;;;;;;;;;;;;;14.08;77.65;99420.17;2679474;87;20166;-66
2021/05/18 05:36:18;;;;;;;;;;;;;;;14.00;78.62;99428.22;2674622;87;20203;-68
2021/05/18 05:40:19;;;;;;;;;;;;;;;14.08;79.03;99429.52;2656508;89;20175;-66
2021/05/18 05:44:21;;;;;;;;;;;;;;;14.19;79.06;99436.36;2656371;89;20191;-68
2021/05/18 05:48:24;;;;;;;;;;;;;;;14.29;77.94;99432.16;2656537;89;20183;-68
2021/05/18 05:52:26;;;;;;;;;;;;;;;14.72;77.89;99421.18;2656651;89;20167;-67
2021/05/18 05:56:28;;;;;;;;;;;;;;;15.23;77.28;99436.80;2656943;89;20175;-68
2021/05/18 06:00:30;;;;;;;;;;;;;;;15.33;75.17;99434.39;2656715;89;20163;-66
2021/05/18 06:04:32;;;;;;;;;;;;;;;15.42;74.77;99430.66;2656712;89;20140;-67
2021/05/18 06:08:46;;;;;;;;;;;;;;;15.48;74.10;99425.91;2656526;89;20171;-68
2021/05/18 06:12:55;;;;;;;;;;;;;;;15.45;73.66;99435.66;2656276;89;20179;-70
2021/05/18 06:34:33;;;;;;;;;;;;;;;16.25;71.91;99449.58;2643170;88;20206;-67
2021/05/18 06:42:46;;;;;;;;;;;;;;;16.45;71.87;99468.33;2699533;87;20165;-68
2021/05/18 06:46:55;;;;;;;;;;;;;;;16.66;72.05;99464.39;2699345;88;20157;-67
2021/05/18 06:50:54;;;;;;;;;;;;;;;16.74;71.12;99454.06;2699084;88;20212;-71
2021/05/18 06:54:55;;;;;;;;;;;;;;;16.95;72.24;99464.05;2698975;88;20225;-68
2021/05/18 07:03:10;;;;;;;;;;;;;;;17.17;70.18;99476.22;2687400;87;20169;-65
2021/05/18 07:07:16;;;;;;;;;;;;;;;17.16;70.24;99468.33;2652523;89;20523;-65
2021/05/18 07:11:13;;;;;;;;;;;;;;;17.14;71.03;99463.16;2613332;91;20227;-66
2021/05/18 07:15:14;;;;;;;;;;;;;;;17.26;72.17;99472.91;2595846;91;20173;-67
2021/05/18 07:19:16;;;;;;;;;;;;;;;17.24;70.48;99470.40;2596000;91;20189;-65
2021/05/18 07:23:22;;;;;;;;;;;;;;;16.92;69.79;99479.70;2596430;91;20189;-65
2021/05/18 07:27:22;;;;;;;;;;;;;;;16.88;70.97;99473.86;2620072;90;20576;-65
2021/05/18 07:31:23;;;;;;;;;;;;;;;16.96;71.06;99468.40;2636930;90;20224;-65
2021/05/18 07:35:25;;;;;;;;;;;;;;;17.13;70.72;99485.69;2637131;90;20206;-69
2021/05/18 07:39:27;;;;;;;;;;;;;;;17.35;70.01;99474.97;2614089;90;20200;-69
2021/05/18 07:43:28;;;;;;;;;;;;;;;17.63;70.23;99471.02;2586273;90;20192;-69
2021/05/18 07:47:34;;;;;;;;;;;;;;;17.82;69.71;99468.18;2604874;90;20183;-70
2021/05/18 08:00:19;;;;;;;;;;;;;;;18.11;67.85;99461.01;2584264;90;20171;-69
2021/05/18 08:08:27;;;;;;;;;;;;;;;18.44;66.09;99478.41;2584545;92;20192;-69
2021/05/18 08:12:28;;;;;;;;;;;;;;;18.66;68.75;99472.41;2584729;90;20159;-69
2021/05/18 09:48:51;;;;;;;;;;;;;;;17.68;71.33;99518.33;2595973;91;20176;-63
2021/05/18 10:35:57;;;;;;;;;;;;;;;18.35;65.56;99519.46;2596081;91;20212;-63
2021/05/18 10:40:29;;;;;;;;;;;;;;;17.99;66.05;99523.06;2605347;91;20159;-63
2021/05/18 10:44:36;;;;;;;;;;;;;;;17.89;66.74;99530.12;2609961;91;20541;-62
2021/05/18 10:48:42;;;;;;;;;;;;;;;17.87;66.96;99511.14;2604291;91;20517;-63
2021/05/18 10:52:45;;;;;;;;;;;;;;;18.26;68.75;99516.58;2610167;90;20199;-63
2021/05/18 10:57:01;;;;;;;;;;;;;;;18.65;67.51;99517.89;2596097;90;20176;-63
2021/05/18 11:01:04;;;;;;;;;;;;;;;18.48;64.89;99520.59;2577628;91;20187;-60
2021/05/18 11:05:08;;;;;;;;;;;;;;;18.38;66.71;99520.41;2578905;91;20175;-61
2021/05/18 11:09:13;;;;;;;;;;;;;;;18.23;65.48;99503.52;2578914;91;20164;-62
2021/05/18 11:13:15;;;;;;;;;;;;;;;18.07;68.35;99520.79;2578393;91;20177;-62
2021/05/18 11:17:22;;;;;;;;;;;;;;;18.03;68.17;99540.52;2577817;91;20213;-63
2021/05/18 11:21:24;;;;;;;;;;;;;;;17.89;69.65;99560.23;2577547;90;20185;-62
2021/05/18 11:25:31;;;;;;;;;;;;;;;17.44;68.04;99571.94;2577751;91;20457;-63
2021/05/18 11:29:40;;;;;;;;;;;;;;;17.49;69.09;99538.63;2576390;90;20160;-62
2021/05/18 11:33:48;;;;;;;;;;;;;;;17.73;71.64;99548.70;2576650;91;20171;-63
2021/05/18 11:38:14;;;;;;;;;;;;;;;17.97;69.61;99546.64;2576462;90;20203;-63
2021/05/18 11:42:36;;;;;;;;;;;;;;;18.18;70.00;99529.70;2572319;92;20168;-63
2021/05/18 11:46:49;;;;;;;;;;;;;;;18.23;66.74;99535.81;2571950;92;20223;-63
2021/05/18 11:51:14;;;;;;;;;;;;;;;18.10;66.20;99541.42;2571879;92;20172;-63
2021/05/18 11:55:30;;;;;;;;;;;;;;;17.93;65.87;99556.13;2575159;91;20191;-63
2021/05/18 11:59:36;;;;;;;;;;;;;;;17.97;69.27;99543.95;2615834;91;20155;-64
2021/05/18 12:03:38;;;;;;;;;;;;;;;18.19;67.33;99543.97;2614444;91;20201;-63
2021/05/18 12:07:40;;;;;;;;;;;;;;;18.20;68.12;99543.79;2615813;91;20171;-66
2021/05/18 12:11:41;;;;;;;;;;;;;;;18.10;67.18;99564.80;2615866;91;20281;-63
2021/05/18 12:15:46;;;;;;;;;;;;;;;18.04;69.11;99562.89;2615972;90;20187;-63
2021/05/18 12:19:48;;;;;;;;;;;;;;;18.08;70.65;99570.39;2612145;91;20187;-63
2021/05/18 12:24:12;;;;;;;;;;;;;;;18.53;69.43;99559.87;2616465;91;20176;-64
2021/05/18 12:28:18;;;;;;;;;;;;;;;18.46;63.72;99561.67;2615704;91;20188;-64
2021/05/18 12:32:26;;;;;;;;;;;;;;;18.26;64.44;99582.03;2617434;91;20148;-67
2021/05/18 12:36:31;;;;;;;;;;;;;;;18.37;62.98;99575.78;2616685;91;20179;-66
2021/05/18 12:40:34;;;;;;;;;;;;;;;18.24;64.09;99580.05;2602855;91;20188;-65
2021/05/18 12:44:53;;;;;;;;;;;;;;;17.99;64.81;99583.11;2596710;91;20176;-65
2021/05/18 12:48:55;;;;;;;;;;;;;;;17.83;65.60;99588.20;2596178;91;20180;-65
2021/05/18 12:52:58;;;;;;;;;;;;;;;17.62;65.65;99579.61;2596362;91;20172;-65
2021/05/18 12:57:02;;;;;;;;;;;;;;;17.39;66.51;99583.28;2585443;91;20160;-67
2021/05/18 13:01:12;;;;;;;;;;;;;;;17.30;67.98;99588.94;2573893;92;20180;-65
2021/05/18 13:05:30;;;;;;;;;;;;;;;17.54;67.41;99576.52;2573878;90;20523;-64
2021/05/18 13:09:33;;;;;;;;;;;;;;;18.03;64.22;99569.30;2573968;92;20721;-65
2021/05/18 13:13:42;;;;;;;;;;;;;;;18.35;64.04;99571.96;2574069;90;20500;-65
2021/05/18 13:18:01;;;;;;;;;;;;;;;18.56;64.40;99567.56;2574378;92;20203;-65
2021/05/18 13:22:04;;;;;;;;;;;;;;;18.71;61.63;99564.76;2574108;92;20195;-64
2021/05/18 13:30:28;;;;;;;;;;;;;;;18.97;63.74;99591.05;2574453;92;20516;-65
2021/05/18 13:34:32;;;;;;;;;;;;;;;18.84;62.17;99580.17;2574437;92;20168;-64
2021/05/18 13:38:34;;;;;;;;;;;;;;;18.69;60.84;99578.44;2575824;90;20144;-65
2021/05/18 13:42:38;;;;;;;;;;;;;;;18.91;63.45;99582.91;2659226;89;20202;-66
2021/05/18 13:46:40;;;;;;;;;;;;;;;18.85;60.25;99580.48;2659246;89;20173;-65
2021/05/18 13:50:42;;;;;;;;;;;;;;;18.96;62.62;99583.14;2659172;89;20190;-64
2021/05/18 13:54:43;;;;;;;;;;;;;;;18.88;62.54;99577.42;2659255;89;20222;-64
2021/05/18 13:58:45;;;;;;;;;;;;;;;18.98;61.32;99578.41;2647171;89;20486;-64
2021/05/18 14:02:48;;;;;;;;;;;;;;;18.82;59.07;99581.73;2646198;89;20198;-64
2021/05/18 14:11:33;;;;;;;;;;;;;;;17.93;63.45;99584.38;2645854;90;20170;-66
2021/05/18 14:15:37;;;;;;;;;;;;;;;17.90;64.84;99588.80;2646402;90;20158;-67
2021/05/18 14:19:38;;;;;;;;;;;;;;;18.23;63.55;99586.95;2646858;90;20166;-67
2021/05/18 14:23:48;;;;;;;;;;;;;;;18.69;62.28;99578.44;2647011;90;20209;-67
2021/05/18 14:27:43;;;;;;;;;;;;;;;19.05;59.16;99577.11;2645091;89;20185;-67
2021/05/18 14:31:47;;;;;;;;;;;;;;;19.24;61.36;99578.26;2646214;90;20190;-66
2021/05/18 14:35:48;;;;;;;;;;;;;;;19.48;60.78;99577.42;2646351;90;20214;-66
2021/05/18 14:40:03;;;;;;;;;;;;;;;19.67;61.04;99577.19;2660844;88;20175;-67
2021/05/18 14:48:25;;;;;;;;;;;;;;;19.05;59.85;99576.61;2687374;88;20155;-67
2021/05/18 14:56:36;;;;;;;;;;;;;;;18.50;61.90;99577.78;2673961;88;20537;-67
2021/05/18 15:00:39;;;;;;;;;;;;;;;18.54;61.61;99579.86;2656169;89;20198;-67
2021/05/18 15:04:40;;;;;;;;;;;;;;;18.89;58.44;99569.66;2656285;89;20214;-67
2021/05/18 15:08:43;;;;;;;;;;;;;;;19.17;57.30;99570.67;2656341;89;20182;-66
2021/05/18 15:12:45;;;;;;;;;;;;;;;19.51;59.16;99569.77;2656576;89;20194;-67
2021/05/18 15:16:47;;;;;;;;;;;;;;;19.72;57.40;99576.05;2656636;89;20178;-67
2021/05/18 15:20:49;;;;;;;;;;;;;;;19.91;57.16;99578.50;2656821;89;20225;-67
2021/05/18 15:24:50;;;;;;;;;;;;;;;20.03;56.60;99578.72;2656745;89;20210;-67
2021/05/18 15:28:52;;;;;;;;;;;;;;;20.11;55.41;99577.19;2686888;88;20136;-67
2021/05/18 15:32:55;;;;;;;;;;;;;;;20.25;56.38;99581.27;2688338;88;20511;-67
2021/05/18 15:36:56;;;;;;;;;;;;;;;20.32;56.73;99587.99;2687448;88;20163;-67
2021/05/18 15:40:58;;;;;;;;;;;;;;;20.29;55.42;99589.26;2691101;87;20215;-62
2021/05/18 15:45:00;;;;;;;;;;;;;;;20.32;55.16;99590.19;2698271;88;20183;-64
2021/05/18 15:49:01;;;;;;;;;;;;;;;20.28;55.72;99580.00;2698051;88;20200;-63
2021/05/18 15:53:02;;;;;;;;;;;;;;;20.09;56.11;99588.72;2697981;88;20171;-63
2021/05/18 15:57:06;;;;;;;;;;;;;;;19.87;55.68;99589.90;2679358;88;20215;-63
2021/05/18 16:01:09;;;;;;;;;;;;;;;19.94;56.46;99585.37;2662254;89;20205;-63
2021/05/18 16:05:11;;;;;;;;;;;;;;;20.06;55.83;99580.19;2662244;89;20205;-63
2021/05/18 16:09:13;;;;;;;;;;;;;;;20.05;54.78;99594.73;2662061;89;20194;-63
2021/05/18 16:13:15;;;;;;;;;;;;;;;20.03;56.42;99590.87;2662274;89;20213;-64
2021/05/18 16:17:21;;;;;;;;;;;;;;;20.01;54.95;99597.00;2661850;89;20186;-63
2021/05/18 16:21:21;;;;;;;;;;;;;;;19.75;56.76;99602.63;2661465;89;20197;-64
2021/05/18 16:25:22;;;;;;;;;;;;;;;19.58;57.73;99603.51;2661824;88;20418;-64
2021/05/18 16:29:24;;;;;;;;;;;;;;;19.41;57.25;99607.05;2661838;89;20169;-64
2021/05/18 16:33:27;;;;;;;;;;;;;;;19.25;58.37;99606.88;2661888;89;20182;-64
2021/05/18 16:37:29;;;;;;;;;;;;;;;19.06;58.44;99611.11;2661903;89;20471;-63
2021/05/18 16:41:32;;;;;;;;;;;;;;;18.85;58.14;99616.86;2658634;88;20213;-63
2021/05/18 16:45:35;;;;;;;;;;;;;;;18.65;59.33;99616.20;2640749;89;20235;-63
2021/05/18 16:49:37;;;;;;;;;;;;;;;18.57;60.68;99627.13;2656599;89;20178;-63
2021/05/18 16:53:40;;;;;;;;;;;;;;;18.51;60.44;99623.88;2656494;89;20708;-64
2021/05/18 16:57:42;;;;;;;;;;;;;;;18.59;59.45;99629.64;2656356;88;20190;-63
2021/05/18 17:01:43;;;;;;;;;;;;;;;18.56;58.82;99634.36;2656003;89;20193;-63
2021/05/18 17:05:45;;;;;;;;;;;;;;;18.46;59.32;99636.56;2655756;89;20225;-61
2021/05/18 17:09:46;;;;;;;;;;;;;;;18.35;59.70;99637.92;2655419;89;20201;-61
2021/05/18 17:13:47;;;;;;;;;;;;;;;18.24;60.58;99639.27;2655654;89;20209;-62
2021/05/18 17:17:49;;;;;;;;;;;;;;;18.16;61.15;99642.59;2656365;89;20197;-62
2021/05/18 17:21:50;;;;;;;;;;;;;;;18.06;61.28;99642.37;2656046;89;20182;-61
2021/05/18 17:25:52;;;;;;;;;;;;;;;18.01;61.91;99642.09;2662449;88;20183;-61
2021/05/18 17:29:53;;;;;;;;;;;;;;;17.95;61.55;99642.87;2687984;88;20187;-62
2021/05/18 17:33:54;;;;;;;;;;;;;;;17.92;62.77;99647.28;2687873;88;20341;-60
2021/05/18 17:37:56;;;;;;;;;;;;;;;17.78;63.51;99671.83;2688117;88;20524;-61
2021/05/18 17:41:57;;;;;;;;;;;;;;;17.51;65.49;99666.97;2679269;88;20166;-61
2021/05/18 17:46:00;;;;;;;;;;;;;;;17.24;66.64;99665.24;2702939;86;20682;-61
2021/05/18 17:50:02;;;;;;;;;;;;;;;17.02;68.00;99664.81;2702411;88;20207;-60
2021/05/18 17:54:04;;;;;;;;;;;;;;;16.84;69.27;99674.01;2702660;88;20551;-60
2021/05/18 17:58:05;;;;;;;;;;;;;;;16.62;69.83;99676.55;2684913;87;20224;-61
2021/05/18 18:02:07;;;;;;;;;;;;;;;16.39;70.56;99674.71;2679949;86;20240;-60
2021/05/18 18:06:09;;;;;;;;;;;;;;;16.22;71.47;99675.84;2679577;88;20189;-60
2021/05/18 18:10:14;;;;;;;;;;;;;;;16.03;72.16;99677.95;2679963;88;20213;-61
2021/05/18 18:14:15;;;;;;;;;;;;;;;15.89;72.90;99685.41;2679483;89;20216;-60
2021/05/18 18:18:18;;;;;;;;;;;;;;;15.75;73.32;99687.80;2679321;87;20232;-60
2021/05/18 18:22:20;;;;;;;;;;;;;;;15.64;73.93;99696.22;2679259;89;20217;-61
2021/05/18 18:26:24;;;;;;;;;;;;;;;15.57;74.95;99709.47;2685716;86;20191;-60
2021/05/18 18:30:25;;;;;;;;;;;;;;;15.54;75.87;99705.80;2699060;88;20178;-60
2021/05/18 18:34:28;;;;;;;;;;;;;;;15.56;76.45;99712.67;2699478;88;20187;-60
2021/05/18 18:38:29;;;;;;;;;;;;;;;15.61;76.62;99716.67;2699089;88;20195;-60
2021/05/18 18:42:31;;;;;;;;;;;;;;;15.66;76.98;99712.96;2689503;88;20179;-60
2021/05/18 18:46:33;;;;;;;;;;;;;;;15.70;76.96;99704.89;2684708;88;20208;-60
2021/05/18 18:50:41;;;;;;;;;;;;;;;15.70;76.86;99714.28;2684758;88;20191;-60
2021/05/18 18:54:43;;;;;;;;;;;;;;;15.73;76.96;99713.11;2684826;88;20594;-60
2021/05/18 18:58:45;;;;;;;;;;;;;;;15.73;77.10;99725.17;2665720;88;28366;-60
2021/05/18 19:02:51;;;;;;;;;;;;;;;15.63;77.67;99722.69;2664834;87;20209;-59
2021/05/18 19:15:02;;;;;;;;;;;;;;;15.52;78.18;99743.48;2664973;89;20185;-59
2021/05/18 19:19:04;;;;;;;;;;;;;;;15.39;77.63;99749.90;2664717;88;20190;-59
2021/05/18 19:23:06;;;;;;;;;;;;;;;15.22;78.00;99766.00;2664611;89;20225;-60
2021/05/18 19:27:08;;;;;;;;;;;;;;;15.06;78.50;99766.00;2675319;88;20160;-59
2021/05/18 19:31:14;;;;;;;;;;;;;;;15.06;78.63;99764.66;2684112;88;20159;-60
2021/05/18 19:43:53;;;;;;;;;;;;;;;15.09;79.52;99765.66;2690745;88;20508;-60
2021/05/18 19:51:53;;;;;;;;;;;;;;;15.07;79.24;99774.37;2692307;88;20187;-61
2021/05/18 19:55:59;;;;;;;;;;;;;;;15.04;79.09;99779.58;2692707;88;20532;-61
2021/05/18 20:25:38;;;;;;;;;;;;;;;14.44;79.64;99784.12;2692349;88;20194;-61
2021/05/18 20:29:41;;;;;;;;;;;;;;;14.36;79.53;99790.32;2692318;88;20202;-61
2021/05/18 20:42:08;;;;;;;;;;;;;;;14.12;80.67;99785.20;2692070;88;20191;-61
2021/05/18 20:46:10;;;;;;;;;;;;;;;14.06;81.39;99787.71;2691970;88;20175;-61
2021/05/18 20:50:15;;;;;;;;;;;;;;;14.10;81.50;99787.72;2691981;88;20187;-61
2021/05/18 20:54:16;;;;;;;;;;;;;;;14.18;81.60;99792.27;2692004;88;20495;-61
2021/05/18 20:58:18;;;;;;;;;;;;;;;14.23;81.47;99793.43;2694280;88;20224;-61
2021/05/18 21:02:19;;;;;;;;;;;;;;;14.28;81.03;99783.59;2694527;88;20524;-61
2021/05/18 21:06:25;;;;;;;;;;;;;;;14.29;80.51;99791.95;2694202;88;20215;-61
2021/05/18 21:18:51;;;;;;;;;;;;;;;13.95;79.20;99792.33;2695032;88;20184;-61
2021/05/18 21:22:53;;;;;;;;;;;;;;;13.74;79.62;99790.04;2694939;88;20214;-61
2021/05/18 21:26:54;;;;;;;;;;;;;;;13.54;80.32;99791.59;2695005;88;20192;-62
2021/05/18 21:30:56;;;;;;;;;;;;;;;13.41;80.47;99788.49;2694577;88;20218;-61
2021/05/18 21:34:57;;;;;;;;;;;;;;;13.32;81.01;99796.09;2694260;88;20214;-61
2021/05/18 21:39:03;;;;;;;;;;;;;;;13.16;81.08;99794.97;2694159;88;20211;-61
2021/05/18 21:43:03;;;;;;;;;;;;;;;12.97;81.02;99799.52;2689705;88;20192;-61
2021/05/18 21:47:05;;;;;;;;;;;;;;;12.80;81.34;99795.02;2686983;88;20247;-61
2021/05/18 21:51:07;;;;;;;;;;;;;;;12.73;81.04;99799.27;2686791;88;20571;-61
2021/05/18 21:55:11;;;;;;;;;;;;;;;12.60;80.69;99801.83;2686666;88;20199;-61
2021/05/18 21:59:12;;;;;;;;;;;;;;;12.41;81.44;99798.30;2686661;88;20222;-61
2021/05/18 22:03:17;;;;;;;;;;;;;;;12.33;82.26;99797.36;2668948;88;20552;-61
2021/05/18 22:07:20;;;;;;;;;;;;;;;12.21;83.24;99796.22;2686259;88;20551;-61
2021/05/18 22:28:20;;;;;;;;;;;;;;;12.26;85.05;99799.78;2658820;88;20170;-61
2021/05/18 22:32:22;;;;;;;;;;;;;;;12.33;85.53;99806.70;2686743;88;20248;-61
2021/05/18 22:36:24;;;;;;;;;;;;;;;12.39;86.01;99798.94;2686585;88;20239;-61
2021/05/18 22:40:25;;;;;;;;;;;;;;;12.45;86.41;99811.33;2686581;88;20187;-61
2021/05/18 22:44:27;;;;;;;;;;;;;;;12.51;87.08;99813.38;2692889;88;20168;-61
2021/05/18 22:48:28;;;;;;;;;;;;;;;12.56;87.39;99801.76;2694379;88;20170;-61
2021/05/18 22:52:29;;;;;;;;;;;;;;;12.61;87.34;99810.17;2694670;88;20139;-61
2021/05/18 22:56:31;;;;;;;;;;;;;;;12.69;87.60;99811.58;2694444;88;20203;-61
2021/05/18 23:00:33;;;;;;;;;;;;;;;12.78;87.42;99807.67;2694774;88;20167;-61
2021/05/18 23:04:34;;;;;;;;;;;;;;;12.83;87.04;99804.87;2694296;88;20207;-61
2021/05/18 23:08:36;;;;;;;;;;;;;;;12.89;86.98;99814.62;2694668;88;20174;-61
2021/05/18 23:12:37;;;;;;;;;;;;;;;12.81;86.78;99812.70;2694651;88;20179;-61
2021/05/18 23:16:38;;;;;;;;;;;;;;;12.83;87.46;99808.05;2694656;88;20219;-61
2021/05/18 23:20:40;;;;;;;;;;;;;;;12.88;87.27;99811.09;2694666;88;20198;-61
2021/05/18 23:24:42;;;;;;;;;;;;;;;12.88;86.56;99808.42;2694640;88;20182;-61
2021/05/18 23:28:43;;;;;;;;;;;;;;;12.82;86.37;99798.36;2694515;88;20222;-61
2021/05/18 23:32:47;;;;;;;;;;;;;;;12.89;86.42;99802.60;2694676;88;20175;-61
2021/05/18 23:36:49;;;;;;;;;;;;;;;12.90;85.53;99789.59;2694701;88;20194;-62
2021/05/18 23:40:51;;;;;;;;;;;;;;;12.83;84.75;99790.70;2694526;88;21138;-61
2021/05/18 23:44:52;;;;;;;;;;;;;;;12.79;84.92;99792.00;2688016;88;20208;-61
2021/05/18 23:49:05;;;;;;;;;;;;;;;12.73;85.42;99793.44;2686206;88;20219;-61
2021/05/18 23:52:57;;;;;;;;;;;;;;;12.66;85.12;99787.87;2685541;88;20191;-61
2021/05/18 23:56:58;;;;;;;;;;;;;;;12.65;85.59;99789.34;2686556;88;20183;-61
